sensor_id;sensor_type;location;lat;lon;timestamp;P1;durP1;ratioP1;P2;durP2;ratioP2
46751;SDS011;32497;48.936;9.270;2023-03-03T00:02:50;15.53;;;7.10;;
46751;SDS011;32497;48.936;9.270;2023-03-03T00:07:51;17.93;;;7.47;;
46751;SDS011;32497;48.936;9.270;2023-03-03T00:12:54;18.60;;;6.97;;
46751;SDS011;32497;48.936;9.270;2023-03-03T00:17:55;18.77;;;7.43;;
46751;SDS011;32497;48.936;9.270;2023-03-03T00:22:57;14.07;;;6.50;;
46751;SDS011;32497;48.936;9.270;2023-03-03T00:28:17;20.20;;;7.93;;
46751;SDS011;32497;48.936;9.270;2023-03-03T00:33:27;19.67;;;7.73;;
46751;SDS011;32497;48.936;9.270;2023-03-03T00:38:30;12.67;;;6.23;;
46751;SDS011;32497;48.936;9.270;2023-03-03T00:43:36;17.37;;;7.07;;
46751;SDS011;32497;48.936;9.270;2023-03-03T00:48:40;18.10;;;6.53;;
46751;SDS011;32497;48.936;9.270;2023-03-03T00:53:42;29.10;;;8.43;;
46751;SDS011;32497;48.936;9.270;2023-03-03T00:58:44;14.30;;;6.77;;
46751;SDS011;32497;48.936;9.270;2023-03-03T01:03:46;25.30;;;7.40;;
46751;SDS011;32497;48.936;9.270;2023-03-03T01:08:47;16.53;;;7.13;;
46751;SDS011;32497;48.936;9.270;2023-03-03T01:13:50;15.67;;;6.40;;
46751;SDS011;32497;48.936;9.270;2023-03-03T01:18:52;15.07;;;5.37;;
46751;SDS011;32497;48.936;9.270;2023-03-03T01:23:53;18.57;;;7.57;;
46751;SDS011;32497;48.936;9.270;2023-03-03T01:28:56;16.30;;;7.23;;
46751;SDS011;32497;48.936;9.270;2023-03-03T01:33:57;19.10;;;5.93;;
46751;SDS011;32497;48.936;9.270;2023-03-03T01:38:58;24.23;;;8.37;;
46751;SDS011;32497;48.936;9.270;2023-03-03T01:44:01;24.93;;;7.47;;
46751;SDS011;32497;48.936;9.270;2023-03-03T01:49:04;14.60;;;6.10;;
46751;SDS011;32497;48.936;9.270;2023-03-03T01:54:13;17.40;;;6.53;;
46751;SDS011;32497;48.936;9.270;2023-03-03T01:59:23;15.87;;;5.50;;
46751;SDS011;32497;48.936;9.270;2023-03-03T02:04:27;18.03;;;8.13;;
46751;SDS011;32497;48.936;9.270;2023-03-03T02:09:31;24.47;;;8.13;;
46751;SDS011;32497;48.936;9.270;2023-03-03T02:14:43;20.33;;;7.40;;
46751;SDS011;32497;48.936;9.270;2023-03-03T02:19:46;21.87;;;7.50;;
46751;SDS011;32497;48.936;9.270;2023-03-03T02:24:54;16.37;;;5.00;;
46751;SDS011;32497;48.936;9.270;2023-03-03T02:30:09;13.40;;;6.43;;
46751;SDS011;32497;48.936;9.270;2023-03-03T02:40:32;14.67;;;6.63;;
46751;SDS011;32497;48.936;9.270;2023-03-03T02:45:42;16.07;;;7.17;;
46751;SDS011;32497;48.936;9.270;2023-03-03T02:50:43;12.20;;;5.43;;
46751;SDS011;32497;48.936;9.270;2023-03-03T02:55:44;18.27;;;6.37;;
46751;SDS011;32497;48.936;9.270;2023-03-03T03:00:47;18.87;;;6.90;;
46751;SDS011;32497;48.936;9.270;2023-03-03T03:05:52;14.80;;;6.73;;
46751;SDS011;32497;48.936;9.270;2023-03-03T03:10:55;16.00;;;5.80;;
46751;SDS011;32497;48.936;9.270;2023-03-03T03:15:59;12.17;;;6.10;;
46751;SDS011;32497;48.936;9.270;2023-03-03T03:21:04;17.70;;;7.50;;
46751;SDS011;32497;48.936;9.270;2023-03-03T03:26:07;12.13;;;6.30;;
46751;SDS011;32497;48.936;9.270;2023-03-03T03:31:10;14.33;;;4.43;;
46751;SDS011;32497;48.936;9.270;2023-03-03T03:36:11;14.70;;;6.63;;
46751;SDS011;32497;48.936;9.270;2023-03-03T03:41:13;16.43;;;7.43;;
46751;SDS011;32497;48.936;9.270;2023-03-03T03:46:15;16.77;;;4.47;;
46751;SDS011;32497;48.936;9.270;2023-03-03T03:51:17;17.13;;;7.10;;
46751;SDS011;32497;48.936;9.270;2023-03-03T03:56:18;17.97;;;6.67;;
46751;SDS011;32497;48.936;9.270;2023-03-03T04:01:24;19.97;;;6.63;;
46751;SDS011;32497;48.936;9.270;2023-03-03T04:06:26;16.40;;;6.33;;
46751;SDS011;32497;48.936;9.270;2023-03-03T04:11:29;18.77;;;7.00;;
46751;SDS011;32497;48.936;9.270;2023-03-03T04:16:31;14.53;;;8.27;;
46751;SDS011;32497;48.936;9.270;2023-03-03T04:21:33;15.73;;;7.70;;
46751;SDS011;32497;48.936;9.270;2023-03-03T04:26:35;22.00;;;7.80;;
46751;SDS011;32497;48.936;9.270;2023-03-03T04:31:40;22.47;;;9.10;;
46751;SDS011;32497;48.936;9.270;2023-03-03T04:36:43;21.00;;;7.77;;
46751;SDS011;32497;48.936;9.270;2023-03-03T04:41:44;22.67;;;7.13;;
46751;SDS011;32497;48.936;9.270;2023-03-03T04:46:47;22.00;;;7.90;;
46751;SDS011;32497;48.936;9.270;2023-03-03T04:51:48;15.80;;;6.77;;
46751;SDS011;32497;48.936;9.270;2023-03-03T04:56:50;22.80;;;8.67;;
46751;SDS011;32497;48.936;9.270;2023-03-03T05:01:53;20.03;;;8.40;;
46751;SDS011;32497;48.936;9.270;2023-03-03T05:06:54;20.13;;;7.73;;
46751;SDS011;32497;48.936;9.270;2023-03-03T05:11:55;23.67;;;8.80;;
46751;SDS011;32497;48.936;9.270;2023-03-03T05:16:58;19.93;;;8.70;;
46751;SDS011;32497;48.936;9.270;2023-03-03T05:21:59;22.90;;;8.00;;
46751;SDS011;32497;48.936;9.270;2023-03-03T05:27:00;18.90;;;8.33;;
46751;SDS011;32497;48.936;9.270;2023-03-03T05:32:03;23.47;;;8.60;;
46751;SDS011;32497;48.936;9.270;2023-03-03T05:37:04;24.47;;;8.80;;
46751;SDS011;32497;48.936;9.270;2023-03-03T05:42:05;25.57;;;10.10;;
46751;SDS011;32497;48.936;9.270;2023-03-03T05:47:09;25.20;;;9.67;;
46751;SDS011;32497;48.936;9.270;2023-03-03T05:52:10;18.43;;;7.93;;
46751;SDS011;32497;48.936;9.270;2023-03-03T05:57:11;28.57;;;9.43;;
46751;SDS011;32497;48.936;9.270;2023-03-03T06:02:13;19.10;;;8.87;;
46751;SDS011;32497;48.936;9.270;2023-03-03T06:07:14;24.30;;;9.13;;
46751;SDS011;32497;48.936;9.270;2023-03-03T06:12:15;21.80;;;8.97;;
46751;SDS011;32497;48.936;9.270;2023-03-03T06:17:18;30.27;;;9.80;;
46751;SDS011;32497;48.936;9.270;2023-03-03T06:22:19;20.87;;;8.30;;
46751;SDS011;32497;48.936;9.270;2023-03-03T06:27:21;22.73;;;9.30;;
46751;SDS011;32497;48.936;9.270;2023-03-03T06:32:23;25.73;;;9.73;;
46751;SDS011;32497;48.936;9.270;2023-03-03T06:37:24;27.03;;;9.73;;
46751;SDS011;32497;48.936;9.270;2023-03-03T06:42:25;30.47;;;10.07;;
46751;SDS011;32497;48.936;9.270;2023-03-03T06:47:28;23.13;;;9.90;;
46751;SDS011;32497;48.936;9.270;2023-03-03T06:52:29;28.07;;;9.77;;
46751;SDS011;32497;48.936;9.270;2023-03-03T06:57:31;24.07;;;9.87;;
46751;SDS011;32497;48.936;9.270;2023-03-03T07:02:34;20.03;;;9.37;;
46751;SDS011;32497;48.936;9.270;2023-03-03T07:07:35;24.23;;;9.80;;
46751;SDS011;32497;48.936;9.270;2023-03-03T07:12:36;27.73;;;9.13;;
46751;SDS011;32497;48.936;9.270;2023-03-03T07:17:39;22.53;;;9.97;;
46751;SDS011;32497;48.936;9.270;2023-03-03T07:22:43;28.23;;;9.17;;
46751;SDS011;32497;48.936;9.270;2023-03-03T07:27:45;27.27;;;10.53;;
46751;SDS011;32497;48.936;9.270;2023-03-03T07:32:47;22.63;;;8.60;;
46751;SDS011;32497;48.936;9.270;2023-03-03T07:37:50;23.73;;;8.90;;
46751;SDS011;32497;48.936;9.270;2023-03-03T07:42:51;23.53;;;9.03;;
46751;SDS011;32497;48.936;9.270;2023-03-03T07:48:07;21.93;;;8.97;;
46751;SDS011;32497;48.936;9.270;2023-03-03T07:53:20;25.50;;;9.33;;
46751;SDS011;32497;48.936;9.270;2023-03-03T07:58:26;26.57;;;10.20;;
46751;SDS011;32497;48.936;9.270;2023-03-03T08:03:36;18.03;;;8.70;;
46751;SDS011;32497;48.936;9.270;2023-03-03T08:08:37;21.93;;;10.07;;
46751;SDS011;32497;48.936;9.270;2023-03-03T08:13:39;16.57;;;8.40;;
46751;SDS011;32497;48.936;9.270;2023-03-03T08:18:44;18.83;;;8.90;;
46751;SDS011;32497;48.936;9.270;2023-03-03T08:23:47;27.53;;;9.30;;
46751;SDS011;32497;48.936;9.270;2023-03-03T08:28:48;26.30;;;9.87;;
46751;SDS011;32497;48.936;9.270;2023-03-03T08:33:51;23.40;;;9.03;;
46751;SDS011;32497;48.936;9.270;2023-03-03T08:38:52;23.97;;;9.87;;
46751;SDS011;32497;48.936;9.270;2023-03-03T08:43:53;24.37;;;10.10;;
46751;SDS011;32497;48.936;9.270;2023-03-03T08:48:55;18.70;;;7.83;;
46751;SDS011;32497;48.936;9.270;2023-03-03T08:53:57;26.67;;;9.87;;
46751;SDS011;32497;48.936;9.270;2023-03-03T08:58:58;21.37;;;9.53;;
46751;SDS011;32497;48.936;9.270;2023-03-03T09:04:00;23.53;;;9.87;;
46751;SDS011;32497;48.936;9.270;2023-03-03T09:09:01;28.43;;;10.93;;
46751;SDS011;32497;48.936;9.270;2023-03-03T09:14:05;25.37;;;9.30;;
46751;SDS011;32497;48.936;9.270;2023-03-03T09:24:33;16.30;;;7.83;;
46751;SDS011;32497;48.936;9.270;2023-03-03T09:29:36;21.80;;;9.17;;
46751;SDS011;32497;48.936;9.270;2023-03-03T09:34:39;15.93;;;8.03;;
46751;SDS011;32497;48.936;9.270;2023-03-03T09:39:41;23.40;;;9.37;;
46751;SDS011;32497;48.936;9.270;2023-03-03T09:50:27;18.50;;;8.53;;
46751;SDS011;32497;48.936;9.270;2023-03-03T09:55:38;22.10;;;9.03;;
46751;SDS011;32497;48.936;9.270;2023-03-03T10:00:50;18.10;;;9.10;;
46751;SDS011;32497;48.936;9.270;2023-03-03T10:05:59;19.30;;;8.27;;
46751;SDS011;32497;48.936;9.270;2023-03-03T10:11:09;17.90;;;8.63;;
46751;SDS011;32497;48.936;9.270;2023-03-03T10:16:24;19.30;;;8.37;;
46751;SDS011;32497;48.936;9.270;2023-03-03T10:21:53;15.57;;;7.43;;
46751;SDS011;32497;48.936;9.270;2023-03-03T10:27:07;16.53;;;6.60;;
46751;SDS011;32497;48.936;9.270;2023-03-03T10:32:23;15.27;;;7.07;;
46751;SDS011;32497;48.936;9.270;2023-03-03T10:37:47;13.60;;;6.67;;
46751;SDS011;32497;48.936;9.270;2023-03-03T10:43:05;14.93;;;7.13;;
46751;SDS011;32497;48.936;9.270;2023-03-03T10:48:22;18.20;;;6.83;;
46751;SDS011;32497;48.936;9.270;2023-03-03T10:53:51;15.67;;;6.63;;
46751;SDS011;32497;48.936;9.270;2023-03-03T10:59:10;15.67;;;6.63;;
46751;SDS011;32497;48.936;9.270;2023-03-03T11:04:41;13.33;;;6.17;;
46751;SDS011;32497;48.936;9.270;2023-03-03T11:09:55;12.80;;;6.40;;
46751;SDS011;32497;48.936;9.270;2023-03-03T11:15:12;14.87;;;6.47;;
46751;SDS011;32497;48.936;9.270;2023-03-03T11:20:29;14.07;;;6.93;;
46751;SDS011;32497;48.936;9.270;2023-03-03T11:25:37;14.07;;;7.50;;
46751;SDS011;32497;48.936;9.270;2023-03-03T11:30:52;14.73;;;6.13;;
46751;SDS011;32497;48.936;9.270;2023-03-03T11:36:06;16.63;;;7.33;;
46751;SDS011;32497;48.936;9.270;2023-03-03T11:41:14;11.97;;;6.47;;
46751;SDS011;32497;48.936;9.270;2023-03-03T11:46:24;10.03;;;6.03;;
46751;SDS011;32497;48.936;9.270;2023-03-03T11:51:31;14.27;;;6.63;;
46751;SDS011;32497;48.936;9.270;2023-03-03T11:56:42;16.67;;;7.00;;
46751;SDS011;32497;48.936;9.270;2023-03-03T12:01:45;12.20;;;5.63;;
46751;SDS011;32497;48.936;9.270;2023-03-03T12:06:56;13.67;;;5.57;;
46751;SDS011;32497;48.936;9.270;2023-03-03T12:12:14;13.53;;;6.30;;
46751;SDS011;32497;48.936;9.270;2023-03-03T12:17:24;13.77;;;6.97;;
46751;SDS011;32497;48.936;9.270;2023-03-03T12:22:40;12.20;;;5.40;;
46751;SDS011;32497;48.936;9.270;2023-03-03T12:27:48;14.87;;;6.13;;
46751;SDS011;32497;48.936;9.270;2023-03-03T12:32:59;12.10;;;6.60;;
46751;SDS011;32497;48.936;9.270;2023-03-03T12:38:10;17.00;;;7.17;;
46751;SDS011;32497;48.936;9.270;2023-03-03T12:43:22;12.37;;;7.00;;
46751;SDS011;32497;48.936;9.270;2023-03-03T12:48:37;16.10;;;7.10;;
46751;SDS011;32497;48.936;9.270;2023-03-03T12:53:44;14.77;;;6.80;;
46751;SDS011;32497;48.936;9.270;2023-03-03T12:58:58;14.10;;;7.07;;
46751;SDS011;32497;48.936;9.270;2023-03-03T13:04:04;15.17;;;6.73;;
46751;SDS011;32497;48.936;9.270;2023-03-03T13:09:18;13.87;;;6.47;;
46751;SDS011;32497;48.936;9.270;2023-03-03T13:14:32;16.45;;;7.00;;
46751;SDS011;32497;48.936;9.270;2023-03-03T13:19:40;15.57;;;6.90;;
46751;SDS011;32497;48.936;9.270;2023-03-03T13:24:51;14.85;;;7.05;;
46751;SDS011;32497;48.936;9.270;2023-03-03T13:30:01;15.90;;;7.72;;
46751;SDS011;32497;48.936;9.270;2023-03-03T13:35:10;11.70;;;6.53;;
46751;SDS011;32497;48.936;9.270;2023-03-03T13:40:21;14.50;;;7.10;;
46751;SDS011;32497;48.936;9.270;2023-03-03T13:45:26;16.33;;;7.55;;
46751;SDS011;32497;48.936;9.270;2023-03-03T13:50:35;17.92;;;8.52;;
46751;SDS011;32497;48.936;9.270;2023-03-03T13:55:46;16.27;;;8.02;;
46751;SDS011;32497;48.936;9.270;2023-03-03T14:00:58;15.93;;;7.72;;
46751;SDS011;32497;48.936;9.270;2023-03-03T14:06:06;16.33;;;8.23;;
46751;SDS011;32497;48.936;9.270;2023-03-03T14:11:13;15.68;;;7.28;;
46751;SDS011;32497;48.936;9.270;2023-03-03T14:16:21;18.35;;;8.27;;
46751;SDS011;32497;48.936;9.270;2023-03-03T14:21:39;16.63;;;7.03;;
46751;SDS011;32497;48.936;9.270;2023-03-03T14:26:58;13.98;;;7.43;;
46751;SDS011;32497;48.936;9.270;2023-03-03T14:32:01;15.57;;;7.53;;
46751;SDS011;32497;48.936;9.270;2023-03-03T14:37:21;14.77;;;7.65;;
46751;SDS011;32497;48.936;9.270;2023-03-03T14:42:31;15.43;;;7.30;;
46751;SDS011;32497;48.936;9.270;2023-03-03T14:47:37;17.23;;;8.00;;
46751;SDS011;32497;48.936;9.270;2023-03-03T14:52:45;14.25;;;7.22;;
46751;SDS011;32497;48.936;9.270;2023-03-03T14:58:07;15.60;;;7.15;;
46751;SDS011;32497;48.936;9.270;2023-03-03T15:03:29;15.63;;;7.90;;
46751;SDS011;32497;48.936;9.270;2023-03-03T15:08:31;12.57;;;6.93;;
46751;SDS011;32497;48.936;9.270;2023-03-03T15:13:34;15.63;;;7.25;;
46751;SDS011;32497;48.936;9.270;2023-03-03T15:18:48;16.98;;;7.05;;
46751;SDS011;32497;48.936;9.270;2023-03-03T15:24:14;15.10;;;7.82;;
46751;SDS011;32497;48.936;9.270;2023-03-03T15:29:23;16.73;;;7.38;;
46751;SDS011;32497;48.936;9.270;2023-03-03T15:34:32;15.13;;;7.20;;
46751;SDS011;32497;48.936;9.270;2023-03-03T15:39:40;15.13;;;7.10;;
46751;SDS011;32497;48.936;9.270;2023-03-03T15:44:51;16.45;;;6.85;;
46751;SDS011;32497;48.936;9.270;2023-03-03T15:50:16;15.13;;;7.07;;
46751;SDS011;32497;48.936;9.270;2023-03-03T15:55:28;14.47;;;7.33;;
46751;SDS011;32497;48.936;9.270;2023-03-03T16:00:40;16.20;;;8.10;;
46751;SDS011;32497;48.936;9.270;2023-03-03T16:05:58;16.53;;;6.57;;
46751;SDS011;32497;48.936;9.270;2023-03-03T16:11:06;18.53;;;6.83;;
46751;SDS011;32497;48.936;9.270;2023-03-03T16:16:15;16.63;;;7.27;;
46751;SDS011;32497;48.936;9.270;2023-03-03T16:21:32;11.97;;;5.97;;
46751;SDS011;32497;48.936;9.270;2023-03-03T16:26:50;17.93;;;6.93;;
46751;SDS011;32497;48.936;9.270;2023-03-03T16:31:57;16.77;;;7.10;;
46751;SDS011;32497;48.936;9.270;2023-03-03T16:37:09;13.67;;;6.70;;
46751;SDS011;32497;48.936;9.270;2023-03-03T16:42:16;19.00;;;6.80;;
46751;SDS011;32497;48.936;9.270;2023-03-03T16:47:30;14.43;;;6.70;;
46751;SDS011;32497;48.936;9.270;2023-03-03T16:52:46;13.10;;;6.10;;
46751;SDS011;32497;48.936;9.270;2023-03-03T16:57:56;16.53;;;6.83;;
46751;SDS011;32497;48.936;9.270;2023-03-03T17:03:12;18.27;;;6.73;;
46751;SDS011;32497;48.936;9.270;2023-03-03T17:08:39;12.70;;;5.87;;
46751;SDS011;32497;48.936;9.270;2023-03-03T17:14:02;16.93;;;6.87;;
46751;SDS011;32497;48.936;9.270;2023-03-03T17:19:21;18.90;;;6.97;;
46751;SDS011;32497;48.936;9.270;2023-03-03T17:24:37;16.43;;;6.27;;
46751;SDS011;32497;48.936;9.270;2023-03-03T17:29:49;15.70;;;6.53;;
46751;SDS011;32497;48.936;9.270;2023-03-03T17:35:12;17.97;;;7.63;;
46751;SDS011;32497;48.936;9.270;2023-03-03T17:40:38;23.20;;;7.37;;
46751;SDS011;32497;48.936;9.270;2023-03-03T17:45:47;18.43;;;8.10;;
46751;SDS011;32497;48.936;9.270;2023-03-03T17:51:00;18.50;;;7.83;;
46751;SDS011;32497;48.936;9.270;2023-03-03T17:56:15;18.97;;;8.13;;
46751;SDS011;32497;48.936;9.270;2023-03-03T18:01:23;19.83;;;7.43;;
46751;SDS011;32497;48.936;9.270;2023-03-03T18:06:51;22.80;;;8.47;;
46751;SDS011;32497;48.936;9.270;2023-03-03T18:12:19;19.23;;;8.07;;
46751;SDS011;32497;48.936;9.270;2023-03-03T18:17:47;19.33;;;8.53;;
46751;SDS011;32497;48.936;9.270;2023-03-03T18:23:24;20.50;;;8.83;;
46751;SDS011;32497;48.936;9.270;2023-03-03T18:28:44;15.87;;;7.93;;
46751;SDS011;32497;48.936;9.270;2023-03-03T18:34:00;17.53;;;8.13;;
46751;SDS011;32497;48.936;9.270;2023-03-03T18:39:08;17.27;;;7.93;;
46751;SDS011;32497;48.936;9.270;2023-03-03T18:49:52;20.07;;;9.30;;
46751;SDS011;32497;48.936;9.270;2023-03-03T19:00:27;22.47;;;9.17;;
46751;SDS011;32497;48.936;9.270;2023-03-03T19:05:33;18.37;;;8.87;;
46751;SDS011;32497;48.936;9.270;2023-03-03T19:10:51;18.63;;;8.70;;
46751;SDS011;32497;48.936;9.270;2023-03-03T19:15:56;23.40;;;9.27;;
46751;SDS011;32497;48.936;9.270;2023-03-03T19:20:58;21.57;;;8.73;;
46751;SDS011;32497;48.936;9.270;2023-03-03T19:26:18;22.70;;;9.43;;
46751;SDS011;32497;48.936;9.270;2023-03-03T19:31:30;24.27;;;10.30;;
46751;SDS011;32497;48.936;9.270;2023-03-03T19:36:42;28.97;;;10.50;;
46751;SDS011;32497;48.936;9.270;2023-03-03T19:41:55;20.57;;;9.20;;
46751;SDS011;32497;48.936;9.270;2023-03-03T19:47:07;27.60;;;10.73;;
46751;SDS011;32497;48.936;9.270;2023-03-03T19:52:17;28.33;;;10.13;;
46751;SDS011;32497;48.936;9.270;2023-03-03T19:57:29;28.60;;;10.60;;
46751;SDS011;32497;48.936;9.270;2023-03-03T20:02:43;29.90;;;12.13;;
46751;SDS011;32497;48.936;9.270;2023-03-03T20:07:57;28.17;;;10.07;;
46751;SDS011;32497;48.936;9.270;2023-03-03T20:13:04;24.67;;;10.00;;
46751;SDS011;32497;48.936;9.270;2023-03-03T20:18:22;23.57;;;9.17;;
46751;SDS011;32497;48.936;9.270;2023-03-03T20:23:35;21.00;;;9.27;;
46751;SDS011;32497;48.936;9.270;2023-03-03T20:29:02;26.87;;;9.27;;
46751;SDS011;32497;48.936;9.270;2023-03-03T20:34:19;20.27;;;9.30;;
46751;SDS011;32497;48.936;9.270;2023-03-03T20:39:34;23.43;;;9.20;;
46751;SDS011;32497;48.936;9.270;2023-03-03T20:44:46;26.23;;;9.37;;
46751;SDS011;32497;48.936;9.270;2023-03-03T20:50:08;29.07;;;9.57;;
46751;SDS011;32497;48.936;9.270;2023-03-03T20:55:18;27.87;;;10.97;;
46751;SDS011;32497;48.936;9.270;2023-03-03T21:00:28;24.60;;;9.33;;
46751;SDS011;32497;48.936;9.270;2023-03-03T21:05:39;22.27;;;9.67;;
46751;SDS011;32497;48.936;9.270;2023-03-03T21:10:56;23.10;;;8.23;;
46751;SDS011;32497;48.936;9.270;2023-03-03T21:15:58;26.60;;;10.30;;
46751;SDS011;32497;48.936;9.270;2023-03-03T21:21:03;24.60;;;9.30;;
46751;SDS011;32497;48.936;9.270;2023-03-03T21:26:04;28.83;;;10.17;;
46751;SDS011;32497;48.936;9.270;2023-03-03T21:31:10;16.67;;;8.40;;
46751;SDS011;32497;48.936;9.270;2023-03-03T21:36:14;21.93;;;9.53;;
46751;SDS011;32497;48.936;9.270;2023-03-03T21:41:17;25.47;;;9.67;;
46751;SDS011;32497;48.936;9.270;2023-03-03T21:46:19;28.37;;;9.40;;
46751;SDS011;32497;48.936;9.270;2023-03-03T21:51:22;28.07;;;9.93;;
46751;SDS011;32497;48.936;9.270;2023-03-03T21:56:23;28.33;;;9.33;;
46751;SDS011;32497;48.936;9.270;2023-03-03T22:01:24;21.43;;;9.03;;
46751;SDS011;32497;48.936;9.270;2023-03-03T22:06:27;22.93;;;9.20;;
46751;SDS011;32497;48.936;9.270;2023-03-03T22:11:28;20.00;;;8.07;;
46751;SDS011;32497;48.936;9.270;2023-03-03T22:16:29;24.07;;;8.20;;
46751;SDS011;32497;48.936;9.270;2023-03-03T22:21:31;19.67;;;7.87;;
46751;SDS011;32497;48.936;9.270;2023-03-03T22:26:33;19.00;;;9.03;;
46751;SDS011;32497;48.936;9.270;2023-03-03T22:31:34;23.93;;;8.93;;
46751;SDS011;32497;48.936;9.270;2023-03-03T22:36:37;17.40;;;7.93;;
46751;SDS011;32497;48.936;9.270;2023-03-03T22:41:38;21.53;;;7.83;;
46751;SDS011;32497;48.936;9.270;2023-03-03T22:46:39;20.83;;;7.53;;
46751;SDS011;32497;48.936;9.270;2023-03-03T22:51:42;20.20;;;8.43;;
46751;SDS011;32497;48.936;9.270;2023-03-03T22:56:43;17.70;;;7.43;;
46751;SDS011;32497;48.936;9.270;2023-03-03T23:01:44;16.13;;;6.63;;
46751;SDS011;32497;48.936;9.270;2023-03-03T23:06:46;14.40;;;6.50;;
46751;SDS011;32497;48.936;9.270;2023-03-03T23:11:47;15.70;;;7.00;;
46751;SDS011;32497;48.936;9.270;2023-03-03T23:16:48;19.20;;;7.27;;
46751;SDS011;32497;48.936;9.270;2023-03-03T23:21:51;20.87;;;7.87;;
46751;SDS011;32497;48.936;9.270;2023-03-03T23:26:52;20.17;;;6.90;;
46751;SDS011;32497;48.936;9.270;2023-03-03T23:31:53;18.83;;;7.23;;
46751;SDS011;32497;48.936;9.270;2023-03-03T23:36:55;18.00;;;7.13;;
46751;SDS011;32497;48.936;9.270;2023-03-03T23:41:57;15.93;;;6.67;;
46751;SDS011;32497;48.936;9.270;2023-03-03T23:46:58;15.37;;;6.87;;
46751;SDS011;32497;48.936;9.270;2023-03-03T23:52:00;18.47;;;7.37;;
46751;SDS011;32497;48.936;9.270;2023-03-03T23:57:02;18.57;;;7.80;;
